Date,TemperatureHighF,TemperatureAvgF,TemperatureLowF,DewpointHighF,DewpointAvgF,DewpointLowF,HumidityHigh,HumidityAvg,HumidityLow,PressureMaxIn,PressureMinIn,WindSpeedMaxMPH,WindSpeedAvgMPH,GustSpeedMaxMPH,PrecipitationSumIn
2013-1-1,22,11,4,8,2,-4,88,68,44,30.56,30.29,14,3,19,0.00
2013-1-2,26,13,4,4,-2,-8,69,53,31,30.63,30.48,10,3,13,0.01
2013-1-3,29,11,-2,2,-6,-10,68,46,21,30.75,30.62,7,2,11,0.00
2013-1-4,40,21,7,9,1,-7,56,42,25,30.66,30.31,5,1,8,0.00
2013-1-5,35,24,13,5,1,-4,53,37,26,30.56,30.33,19,5,26,0.00
2013-1-6,38,25,10,6,0,-5,52,35,24,30.56,30.27,18,7,27,0.00
2013-1-7,40,28,15,8,2,-1,50,34,22,30.28,30.08,15,4,20,0.00
2013-1-8,42,31,24,12,5,-4,57,34,26,30.41,30.06,8,2,10,0.00
2013-1-9,44,30,18,13,9,6,63,43,26,30.56,30.27,13,4,22,0.00
2013-1-10,34,25,16,14,7,4,66,47,32,30.27,29.74,19,8,28,0.00
2013-1-11,24,17,8,21,5,-7,90,61,33,30.04,29.45,21,11,32,0.00
2013-1-12,15,6,-3,-3,-9,-14,71,50,26,30.31,30.05,16,5,20,0.00
2013-1-13,10,2,-6,-2,-7,-13,82,66,52,30.49,30.32,13,4,21,0.00
2013-1-14,13,3,-4,4,-4,-12,83,71,49,30.53,30.40,12,2,16,0.00
2013-1-15,29,11,-6,7,-4,-15,68,53,34,30.69,30.53,10,3,14,0.00
2013-1-16,42,26,14,18,12,5,72,56,37,30.67,30.46,8,3,14,0.00
2013-1-17,38,27,14,18,14,10,82,60,43,30.67,30.51,20,6,26,0.00
2013-1-18,44,31,23,15,10,5,57,43,22,30.52,30.29,22,6,24,0.00
2013-1-19,45,32,20,8,3,-2,41,29,19,30.52,30.34,12,5,21,0.00
2013-1-20,44,33,24,4,0,-6,42,25,15,30.38,30.24,14,4,19,0.00
2013-1-21,48,34,23,8,4,-2,43,28,18,30.36,30.24,24,7,28,0.00
2013-1-22,51,39,27,-2,-7,-13,27,15,8,30.34,30.22,24,6,31,0.00
2013-1-23,59,41,28,-3,-10,-17,18,12,4,30.34,30.23,17,7,24,0.00
2013-1-24,48,41,34,26,11,-5,61,33,14,30.24,30.00,21,10,32,0.00
2013-1-25,46,39,32,30,26,24,75,61,46,30.18,30.07,22,8,29,0.00
2013-1-26,43,37,32,32,28,23,88,72,53,30.08,29.75,18,9,27,0.00
2013-1-27,46,38,30,31,27,20,84,64,44,29.83,29.73,24,11,33,0.00
2013-1-28,39,30,21,28,22,10,85,74,53,29.79,29.57,23,7,26,0.00
2013-1-29,24,18,8,13,0,-11,70,47,22,30.16,29.69,17,6,24,0.00
2013-1-30,25,19,8,10,1,-9,53,46,38,30.32,30.16,25,11,38,0.00
2013-1-31,37,30,25,15,12,8,62,48,38,30.37,30.25,29,14,38,0.00
2013-2-1,38,32,25,14,12,9,53,43,35,30.30,30.12,30,14,44,0.00
2013-2-2,41,32,25,12,9,4,55,37,27,30.45,30.30,20,8,31,0.00
2013-2-3,45,34,25,14,5,-16,50,30,7,30.39,30.00,22,8,33,0.00
2013-2-4,45,32,20,11,6,1,57,35,17,30.14,30.02,23,7,31,0.00
2013-2-5,46,35,23,14,10,7,51,36,21,30.17,30.00,19,6,23,0.00
2013-2-6,46,36,29,19,14,8,65,40,23,30.01,29.83,18,8,26,0.00
2013-2-7,43,30,18,20,11,4,74,49,20,30.24,30.01,18,5,20,0.00
2013-2-8,42,32,24,21,16,6,69,51,33,30.20,29.76,22,10,29,0.00
2013-2-9,34,27,22,23,15,4,89,61,35,29.77,29.49,19,8,27,0.00
2013-2-10,31,22,18,16,6,-4,90,51,21,30.09,29.68,17,8,23,0.00
2013-2-11,19,12,6,16,8,2,90,84,71,30.37,30.09,12,3,16,0.07
2013-2-12,30,15,1,9,3,-4,87,60,36,30.50,30.37,11,3,18,0.01
2013-2-13,37,24,14,14,9,3,63,51,38,30.43,30.20,19,6,26,0.00
2013-2-14,38,26,16,14,10,7,84,53,28,30.37,30.19,19,5,22,0.00
2013-2-15,35,24,14,12,4,-4,86,45,18,30.53,30.35,21,8,27,0.00
2013-2-16,43,32,19,10,6,3,55,35,25,30.53,30.17,28,11,34,0.00
2013-2-17,46,34,26,18,3,-11,68,28,10,30.16,29.66,24,12,32,0.00
2013-2-18,30,24,16,20,4,-6,82,44,26,30.26,29.71,24,9,34,0.00
2013-2-19,36,25,9,4,-2,-8,49,31,17,30.28,29.91,18,6,25,0.00
2013-2-20,35,25,19,25,15,4,92,66,43,29.91,29.59,10,2,15,0.00
2013-2-21,32,23,16,24,17,12,92,79,53,29.99,29.65,20,4,26,0.14
2013-2-22,31,20,10,16,10,2,90,65,40,30.16,29.99,19,4,23,0.00
2013-2-23,29,22,14,19,9,1,84,58,42,30.14,29.84,24,12,33,0.00
2013-2-24,25,18,9,18,12,3,88,74,53,30.26,29.81,13,5,20,0.01
2013-2-25,35,19,4,14,6,-1,84,58,34,30.38,30.09,17,3,22,0.02
2013-2-26,26,20,11,15,8,1,80,58,44,30.31,29.88,16,4,20,0.00
2013-2-27,30,18,5,6,0,-4,71,48,31,30.56,30.31,23,5,26,0.01
2013-2-28,34,22,7,10,3,-4,63,46,27,30.59,30.35,21,5,28,0.00
2013-3-1,45,31,18,22,15,8,65,53,35,30.46,30.33,21,5,21,0.00
2013-3-2,50,37,24,23,18,15,69,47,31,30.43,30.11,18,4,24,0.00
2013-3-3,49,41,33,28,19,13,81,44,26,30.10,29.60,37,14,48,0.00
2013-3-4,42,32,17,29,21,1,92,68,42,30.15,29.60,28,7,36,0.00
2013-3-5,48,31,13,9,2,-7,65,31,12,30.36,30.16,22,7,26,0.00
2013-3-6,52,41,32,19,12,3,39,30,22,30.19,29.81,17,8,26,0.00
2013-3-7,56,44,35,14,9,-4,39,26,9,29.87,29.74,17,9,23,0.00
2013-3-8,50,38,30,31,19,9,93,50,25,29.80,29.52,20,5,26,0.00
2013-3-9,31,26,20,26,23,18,93,87,77,30.06,29.47,15,6,21,0.00
2013-3-10,40,24,8,22,15,5,93,69,40,30.29,30.06,10,3,17,0.26
2013-3-11,44,34,22,20,15,8,68,48,34,30.28,29.97,26,9,32,0.00
2013-3-12,48,37,24,26,22,19,86,54,38,30.19,30.02,22,9,26,0.00
2013-3-13,54,42,31,25,20,17,59,43,28,30.27,30.17,20,6,25,0.00
2013-3-14,60,46,32,21,17,14,53,33,17,30.30,30.11,21,7,26,0.00
2013-3-15,61,51,41,20,18,15,39,27,17,30.10,29.74,19,8,30,0.00
2013-3-16,47,40,34,31,24,18,77,54,35,29.77,29.65,19,5,24,0.00
2013-3-17,45,36,31,30,21,10,89,56,28,29.77,29.51,28,10,38,0.00
2013-3-18,38,32,25,18,9,2,76,39,28,29.97,29.75,24,12,36,0.00
2013-3-19,48,38,26,10,1,-15,38,23,10,30.16,29.94,26,8,32,0.00
2013-3-20,50,34,18,25,11,-4,57,39,21,30.19,29.83,33,8,40,0.00
2013-3-21,45,36,32,33,22,5,93,59,32,29.82,29.47,23,10,35,0.04
2013-3-22,42,33,23,20,8,-2,79,37,19,29.74,29.54,20,9,31,0.00
2013-3-23,28,18,7,13,9,3,88,67,42,30.26,29.63,16,6,20,0.00
2013-3-24,24,12,0,12,2,-4,85,67,38,30.43,30.26,22,5,25,0.03
2013-3-25,35,18,2,9,0,-8,72,48,24,30.49,30.35,16,4,20,0.01
2013-3-26,50,34,13,18,13,8,82,45,23,30.40,29.97,30,8,39,0.00
2013-3-27,54,43,32,25,17,10,64,39,18,29.97,29.85,19,6,28,0.00
2013-3-28,57,41,27,26,20,12,79,49,17,30.06,29.95,19,4,26,0.00
2013-3-29,58,43,30,25,21,16,72,45,20,30.09,29.97,20,4,22,0.00
2013-3-30,56,44,33,27,22,17,70,43,23,30.06,29.89,17,5,25,0.00
2013-3-31,58,43,29,29,20,13,85,45,20,30.02,29.87,20,6,27,0.00
2013-4-1,57,42,28,26,20,14,81,44,24,29.96,29.68,19,5,27,0.00
2013-4-2,47,33,25,28,26,22,93,77,44,30.07,29.83,17,4,22,0.00
2013-4-3,54,38,26,32,22,9,95,60,17,30.14,30.05,16,4,21,0.03
2013-4-4,59,45,29,22,18,14,60,35,18,30.16,29.94,19,5,24,0.00
2013-4-5,60,50,38,34,21,14,84,36,17,29.94,29.55,22,9,32,0.02
2013-4-6,57,48,35,33,18,5,87,34,13,29.77,29.67,26,9,33,0.00
2013-4-7,49,41,35,28,24,19,66,51,32,29.74,29.64,21,9,38,0.00
2013-4-8,42,40,38,31,30,29,70,66,63,29.31,29.28,10,3,13,0.00
2013-4-9,42,23,9,32,20,6,92,87,55,30.02,29.30,17,5,25,0.06
2013-4-10,34,21,6,24,13,3,90,74,49,30.23,30.01,25,5,28,0.10
2013-4-11,49,35,19,28,20,8,69,54,31,30.07,29.80,29,8,29,0.00
2013-4-12,50,38,26,28,23,16,91,58,28,29.90,29.80,22,5,27,0.00
2013-4-13,56,44,29,34,19,12,83,41,18,29.90,29.34,43,12,46,0.03
2013-4-14,42,36,30,35,24,15,95,65,39,29.63,29.31,38,8,38,0.36
2013-4-15,53,38,26,34,23,12,75,57,34,29.73,29.48,18,6,25,0.00
2013-4-16,60,31,22,27,20,14,88,70,17,29.80,29.52,33,8,42,0.00
2013-4-18,32,26,19,11,4,0,50,39,30,30.41,30.17,22,9,28,0.09
2013-4-19,47,33,16,18,12,3,62,43,29,30.40,30.02,27,10,32,0.00
2013-4-20,49,38,31,30,23,16,86,56,35,30.02,29.81,19,6,27,0.00
2013-4-21,54,41,30,29,20,12,83,47,23,30.06,29.91,27,6,29,0.00
2013-4-22,57,42,22,31,24,16,90,53,21,29.94,29.65,29,11,37,0.00
2013-4-23,36,24,17,28,19,10,91,81,47,30.29,29.87,12,4,15,0.08
2013-4-24,47,32,17,19,14,9,87,52,22,30.31,30.21,21,5,29,0.00
2013-4-25,59,42,26,31,21,14,71,46,18,30.24,29.86,21,6,33,0.00
2013-4-26,60,46,32,32,22,6,73,43,12,30.13,29.90,18,5,23,0.00
2013-4-27,64,48,31,29,18,0,75,38,8,30.14,29.96,17,3,25,0.00
2013-4-28,67,52,34,22,17,14,48,27,14,29.99,29.72,17,4,26,0.00
2013-4-29,68,56,42,27,19,12,46,25,12,29.74,29.46,25,6,32,0.00
2013-4-30,70,59,48,31,18,12,50,22,12,29.47,29.34,34,8,38,0.00
2013-5-1,48,33,21,33,27,18,91,80,52,30.44,29.39,25,9,29,0.00
2013-5-2,46,30,19,23,17,7,91,64,22,30.70,30.44,15,-1,17,0.03
2013-5-3,62,42,25,19,14,6,70,37,11,30.48,29.91,21,4,25,0.00
2013-5-4,58,43,29,31,21,16,75,44,22,30.05,29.83,17,5,23,0.00
2013-5-5,56,42,30,31,22,18,76,47,26,30.06,29.94,17,4,21,0.00
2013-5-6,51,40,34,41,30,19,93,68,49,30.01,29.83,20,4,22,0.38
2013-5-7,56,44,35,40,33,26,93,68,33,29.94,29.81,17,5,22,0.02
2013-5-8,45,38,32,38,33,30,95,82,61,30.00,29.84,19,4,22,0.42
2013-5-9,46,37,33,39,34,32,96,89,65,30.20,29.99,14,2,17,0.20
2013-5-10,55,43,30,35,31,24,95,65,32,30.24,30.15,16,4,20,0.00
2013-5-11,62,48,34,35,30,22,83,54,23,30.27,30.09,17,4,22,0.00
2013-5-12,68,54,41,38,30,23,73,43,19,30.15,29.96,12,3,21,0.00
2013-5-13,73,57,42,36,32,27,58,40,22,30.06,29.90,23,3,32,0.00
2013-5-14,72,56,45,43,37,29,73,51,21,29.90,29.69,18,4,21,0.01
2013-5-15,69,52,43,47,40,32,91,67,26,29.78,29.69,16,3,19,0.09
2013-5-16,71,56,39,44,33,23,92,52,18,29.79,29.63,20,5,24,0.01
2013-5-17,73,59,45,32,20,6,51,26,8,29.69,29.52,22,6,26,0.00
2013-5-18,62,52,42,34,24,14,65,36,21,29.65,29.52,28,7,37,0.00
2013-5-19,54,45,39,32,27,24,62,50,33,29.79,29.64,26,10,34,0.00
2013-5-20,55,43,34,39,30,24,83,61,36,29.92,29.76,26,5,31,0.03
2013-5-21,63,49,35,33,26,18,75,44,18,29.96,29.75,22,5,26,0.00
2013-5-22,71,54,37,34,28,21,67,40,18,29.79,29.61,20,4,26,0.00
2013-5-23,75,55,44,42,35,12,84,55,10,29.78,29.60,23,7,30,0.00
2013-5-24,74,58,41,43,26,6,92,42,8,29.83,29.70,24,6,32,0.00
2013-5-25,76,61,42,27,16,3,38,19,6,29.77,29.60,24,6,26,0.00
2013-5-26,76,62,47,24,18,6,33,19,7,29.69,29.51,20,6,22,0.00
2013-5-27,72,60,48,23,15,10,27,17,11,29.61,29.42,21,8,27,0.00
2013-5-28,71,58,45,25,16,3,34,21,8,29.55,29.32,25,6,35,0.00
2013-5-29,59,51,42,34,26,18,70,39,22,29.54,29.32,37,10,37,0.00
2013-5-30,61,52,42,24,19,12,48,29,16,29.70,29.53,30,12,41,0.00
2013-5-31,62,52,43,30,16,-2,56,26,8,29.86,29.68,29,10,39,0.00
2013-6-1,70,53,36,30,18,7,49,27,10,29.99,29.85,17,5,25,0.00
2013-6-2,78,58,37,32,23,3,72,34,8,29.95,29.64,26,7,29,0.00
2013-6-3,77,64,52,35,26,15,41,25,10,29.65,29.46,31,10,33,0.00
2013-6-4,76,61,49,36,31,23,47,33,14,29.68,29.54,27,6,35,0.00
2013-6-5,76,56,45,46,37,7,86,59,7,29.83,29.63,27,7,28,0.00
2013-6-6,74,57,39,42,35,24,90,50,16,29.87,29.74,17,4,22,0.00
2013-6-7,69,56,45,45,38,30,77,53,30,29.86,29.65,16,3,23,0.04
2013-6-8,81,66,51,41,31,19,56,31,11,29.66,29.51,20,6,25,0.00
2013-6-9,85,66,46,42,32,17,76,36,9,29.72,29.60,20,4,22,0.00
2013-6-10,86,70,52,37,28,14,39,24,7,29.68,29.52,31,6,41,0.00
2013-6-11,84,70,55,30,20,6,32,17,6,29.64,29.48,29,8,36,0.00
2013-6-12,84,70,51,28,21,16,28,17,9,29.77,29.60,20,6,36,0.00
2013-6-13,82,68,54,40,26,16,42,23,12,29.71,29.55,29,5,33,0.00
2013-6-14,80,69,56,40,33,11,54,30,8,29.70,29.48,23,8,29,0.00
2013-6-15,78,63,46,41,31,12,72,35,9,29.75,29.58,35,6,39,0.00
2013-6-16,76,62,51,40,34,27,59,37,17,29.83,29.70,22,5,28,0.00
2013-6-17,78,61,46,40,36,27,71,43,16,29.87,29.73,20,6,25,0.00
2013-6-18,76,62,47,44,37,28,74,44,20,29.84,29.57,29,6,29,0.00
2013-6-19,84,65,46,43,23,-15,79,32,2,29.64,29.43,21,6,31,0.00
2013-6-20,82,68,56,20,12,4,18,12,6,29.56,29.42,21,7,29,0.00
2013-6-21,83,68,52,26,17,8,25,15,8,29.61,29.45,27,8,27,0.00
2013-6-22,80,67,52,27,18,9,27,17,9,29.58,29.42,21,6,27,0.00
2013-6-23,78,65,48,38,22,13,33,20,10,29.63,29.44,19,5,27,0.00
2013-6-24,80,64,48,42,22,9,55,24,7,29.61,29.48,22,6,24,0.00
2013-6-25,81,68,58,28,23,15,25,18,14,29.68,29.56,26,9,31,0.00
2013-6-26,86,71,51,35,28,16,42,22,8,29.78,29.64,20,5,26,0.00
2013-6-27,92,74,57,40,30,20,35,21,8,29.83,29.67,21,4,30,0.00
2013-6-28,86,72,58,45,40,26,55,35,12,29.83,29.67,19,5,26,0.00
2013-6-29,80,61,54,55,46,39,82,58,24,29.88,29.72,18,4,20,0.33
2013-6-30,77,59,49,54,48,39,91,69,27,29.97,29.76,21,3,30,0.49
2013-7-1,74,59,47,54,48,38,95,70,28,29.99,29.86,23,4,24,0.07
2013-7-2,78,61,48,51,45,34,91,62,20,29.98,29.76,21,4,23,0.05
2013-7-3,82,60,47,49,43,28,89,58,14,29.85,29.65,18,3,26,0.01
2013-7-4,80,65,51,45,41,33,73,45,19,29.75,29.57,32,4,35,0.00
2013-7-5,80,67,56,50,45,41,74,46,26,29.64,29.44,21,7,27,0.00
2013-7-6,79,65,54,53,48,41,80,56,26,29.71,29.55,16,4,22,0.03
2013-7-7,80,66,57,57,49,43,79,57,29,29.76,29.62,12,3,15,0.06
2013-7-8,84,67,50,55,45,30,94,54,15,29.83,29.72,24,4,24,0.05
2013-7-9,83,71,56,44,39,32,51,34,17,29.83,29.67,16,4,19,0.00
2013-7-10,84,68,57,53,45,38,67,45,22,29.81,29.64,22,3,24,0.01
2013-7-11,86,69,52,53,46,32,92,52,16,29.78,29.55,18,5,24,0.00
2013-7-12,79,69,61,50,47,39,57,45,27,29.66,29.52,24,6,28,0.00
2013-7-13,83,70,60,50,47,41,59,46,24,29.73,29.62,22,5,29,0.00
2013-7-14,78,63,55,55,50,42,96,67,28,29.86,29.69,19,4,26,0.52
2013-7-15,63,56,52,57,53,50,96,90,80,29.94,29.82,14,2,16,0.31
2013-7-16,71,59,46,51,47,44,96,68,39,29.98,29.86,17,4,18,0.00
2013-7-17,78,63,49,51,48,41,93,60,27,29.99,29.80,21,4,21,0.00
2013-7-18,82,63,54,56,49,44,95,64,31,29.89,29.64,20,6,27,0.30
2013-7-19,76,59,52,56,52,48,95,81,38,29.90,29.81,14,3,19,0.31
2013-7-20,78,65,52,57,50,42,94,63,29,29.87,29.61,16,3,19,0.01
2013-7-21,80,67,54,54,47,38,88,53,25,29.69,29.55,21,4,22,0.00
2013-7-22,80,67,56,53,44,35,63,46,23,29.71,29.58,22,4,35,0.14
2013-7-23,84,69,51,50,39,28,65,37,14,29.78,29.64,11,3,16,0.00
2013-7-24,69,63,58,58,49,42,79,60,42,29.83,29.70,29,4,40,0.02
2013-7-25,75,63,54,53,50,45,80,64,36,29.92,29.75,17,6,22,0.02
2013-7-26,75,61,48,55,49,44,90,65,40,29.99,29.87,18,4,22,0.01
2013-7-27,79,62,54,55,49,45,91,66,32,29.93,29.64,26,8,28,0.09
2013-7-28,70,59,52,57,52,49,93,78,49,29.74,29.63,17,5,19,0.12
2013-7-29,76,63,50,51,47,42,86,60,32,29.89,29.70,32,8,43,0.06
2013-7-30,77,64,49,48,42,35,81,49,24,29.98,29.87,22,6,30,0.00
2013-7-31,83,67,49,49,38,26,68,40,13,30.02,29.79,16,3,19,0.00
2013-8-1,72,64,53,52,48,44,83,59,37,29.81,29.71,21,6,26,0.00
2013-8-2,82,67,57,51,46,40,73,49,25,29.74,29.61,23,6,25,0.00
2013-8-3,80,65,56,51,45,36,74,51,23,29.87,29.70,20,4,28,0.00
2013-8-4,81,65,51,52,48,40,91,59,23,29.87,29.72,13,3,16,0.00
2013-8-5,76,60,54,54,50,38,91,70,28,29.83,29.71,17,4,21,0.07
2013-8-6,74,60,52,51,48,39,90,69,32,29.85,29.75,20,4,23,0.03
2013-8-7,58,54,48,51,48,44,91,81,62,29.92,29.79,12,2,15,0.13
2013-8-8,67,56,48,49,43,36,86,64,33,29.95,29.84,18,3,26,0.00
2013-8-9,72,56,44,51,44,39,84,64,33,30.04,29.88,23,3,25,0.45
2013-8-10,74,58,45,50,44,35,92,64,30,30.04,29.88,23,6,29,0.09
2013-8-11,74,59,46,50,43,35,79,57,27,29.99,29.83,19,5,26,0.05
2013-8-12,73,58,49,49,45,38,83,64,29,29.95,29.84,18,4,21,0.02
2013-8-13,75,59,44,49,42,32,89,60,22,29.99,29.88,19,4,25,0.01
2013-8-14,78,60,45,47,39,25,90,53,15,29.97,29.83,20,4,22,0.00
2013-8-15,80,64,45,45,35,24,70,40,14,29.94,29.80,18,4,28,0.00
2013-8-16,82,65,48,44,36,27,66,38,14,29.90,29.77,25,3,31,0.01
2013-8-17,81,67,50,44,35,28,58,34,15,29.88,29.71,9,2,15,0.00
2013-8-18,82,64,53,45,42,37,60,45,24,29.86,29.70,18,4,23,0.01
2013-8-19,83,66,50,47,42,33,71,44,17,29.88,29.74,18,4,22,0.00
2013-8-20,81,67,52,47,41,32,67,43,18,29.80,29.66,24,4,35,0.00
2013-8-21,78,67,56,47,43,38,59,43,26,29.81,29.69,17,4,22,0.00
2013-8-22,80,67,55,53,46,38,92,48,23,29.84,29.64,14,5,19,0.20
2013-8-23,77,63,51,55,48,34,95,62,30,29.80,29.62,20,4,22,0.02
2013-8-24,76,64,58,50,44,35,66,49,28,29.81,29.68,19,6,25,0.00
2013-8-25,76,63,54,53,50,46,87,65,38,29.90,29.78,18,7,25,0.04
2013-8-26,79,67,58,53,50,46,75,56,34,29.89,29.73,21,7,24,0.00
2013-8-27,81,68,53,50,46,38,79,49,23,29.83,29.67,17,4,24,0.00
2013-8-28,84,68,53,49,43,36,72,44,19,29.79,29.65,22,3,23,0.00
2013-8-29,82,67,53,51,43,35,67,45,20,29.88,29.75,17,4,24,0.02
2013-8-30,81,68,57,50,46,38,67,47,23,29.88,29.72,15,4,19,0.00
2013-8-31,78,62,54,56,48,42,84,63,29,29.83,29.68,14,3,21,0.05
2013-9-1,76,62,52,55,51,44,93,71,32,29.88,29.78,18,4,24,0.05
2013-9-2,77,64,54,54,50,44,93,61,38,29.88,29.73,22,4,35,0.10
2013-9-3,78,65,54,51,48,44,77,57,30,29.87,29.75,18,3,21,0.00
2013-9-4,80,64,54,52,49,44,80,61,30,29.93,29.81,14,3,18,0.00
2013-9-5,85,67,50,50,43,32,86,49,15,29.98,29.79,16,3,18,0.00
2013-9-6,86,70,60,51,40,32,67,36,16,29.85,29.61,17,4,29,0.03
2013-9-7,83,67,53,48,41,32,70,42,16,29.79,29.64,21,4,22,0.00
2013-9-8,81,69,60,48,42,30,64,40,16,29.72,29.48,17,8,26,0.00
2013-9-9,78,65,56,52,44,34,84,49,22,29.60,29.45,18,5,21,0.04
2013-9-10,65,57,53,53,51,48,94,82,58,29.88,29.59,15,4,22,0.20
2013-9-11,65,56,52,55,52,50,96,88,66,29.92,29.84,13,2,14,0.14
2013-9-12,66,57,53,55,53,52,96,88,66,29.95,29.82,14,2,17,0.13
2013-9-13,61,55,51,53,50,46,97,85,68,29.83,29.69,21,6,25,0.48
2013-9-14,64,56,50,51,47,42,88,72,51,29.76,29.67,22,8,29,0.00
2013-9-15,63,53,48,51,47,43,95,80,58,30.01,29.76,19,4,23,0.43
2013-9-16,69,55,45,52,47,41,97,77,39,30.02,29.86,15,3,24,0.01
2013-9-17,70,59,49,51,47,43,88,67,44,29.91,29.64,21,6,23,0.00
2013-9-18,68,56,49,53,47,42,84,72,47,29.75,29.55,20,7,24,0.11
2013-9-19,68,55,44,47,39,18,86,63,16,29.88,29.71,24,6,27,0.01
2013-9-20,72,56,42,44,37,10,95,59,10,29.92,29.78,19,4,20,0.00
2013-9-21,72,58,46,45,40,33,87,55,25,29.83,29.60,25,6,27,0.00
2013-9-22,59,51,41,48,42,37,94,74,49,29.60,29.37,16,6,22,0.56
2013-9-23,55,47,40,38,33,28,86,59,35,30.02,29.41,26,11,33,0.02
2013-9-24,66,51,37,34,30,18,70,47,17,30.08,29.78,22,7,23,0.00
2013-9-25,71,58,46,37,30,25,55,37,19,29.78,29.36,23,11,32,0.00
2013-9-26,70,58,48,29,23,16,36,26,13,29.47,29.35,25,8,28,0.00
2013-9-27,55,46,34,40,31,21,81,56,34,29.88,29.39,26,9,37,0.02
2013-9-28,60,45,31,27,21,15,60,40,20,30.14,29.88,22,9,28,0.00
2013-9-29,65,53,39,28,20,12,53,29,16,30.09,29.81,32,10,36,0.00
2013-9-30,71,59,48,33,25,18,36,26,19,29.86,29.61,24,10,31,0.00
2013-10-1,71,56,40,35,29,22,54,37,23,29.82,29.63,17,4,20,0.00
2013-10-2,69,55,39,33,24,6,63,35,9,29.81,29.63,19,5,24,0.00
2013-10-3,68,56,46,28,23,19,41,29,17,29.65,29.35,23,9,30,0.00
2013-10-4,49,36,29,30,19,13,89,51,35,30.15,29.36,30,12,35,0.00
2013-10-5,55,38,26,17,12,4,55,37,13,30.30,30.14,19,5,24,0.00
2013-10-6,66,46,29,23,16,10,50,32,15,30.33,30.14,11,3,14,0.00
2013-10-7,68,53,37,26,21,17,53,32,16,30.18,29.85,22,6,26,0.00
2013-10-8,67,55,46,27,22,18,43,29,18,29.85,29.50,23,10,27,0.00
2013-10-9,63,52,44,29,23,13,47,33,16,29.71,29.60,22,7,25,0.00
2013-10-10,58,44,36,35,30,21,84,60,31,29.72,29.38,37,9,41,0.02
2013-10-11,51,42,36,29,26,23,64,54,40,29.99,29.59,30,13,39,0.00
2013-10-12,54,42,31,32,26,21,71,55,36,30.09,29.96,21,5,21,0.00
2013-10-13,61,49,39,38,31,22,77,52,30,30.06,29.73,27,9,27,0.00
2013-10-14,48,41,33,38,27,19,88,59,35,30.01,29.65,35,10,42,0.00
2013-10-15,38,31,27,28,26,21,92,80,62,30.20,30.01,18,3,21,0.00
2013-10-16,45,34,23,29,23,18,94,67,40,30.19,30.07,22,6,27,0.03
2013-10-17,50,39,27,20,15,9,59,40,20,30.12,29.88,25,7,29,0.00
2013-10-18,46,35,28,24,14,4,83,46,18,30.16,29.89,17,5,20,0.00
2013-10-19,54,40,27,18,14,5,49,34,23,30.17,29.94,22,7,28,0.00
2013-10-20,56,44,34,29,19,13,79,39,21,29.94,29.71,22,6,26,0.00
2013-10-21,56,41,29,31,22,10,93,55,17,30.15,29.92,16,4,23,0.00
2013-10-22,60,44,31,22,19,16,59,38,22,30.20,30.03,15,4,19,0.00
2013-10-23,64,47,33,24,19,12,56,35,14,30.10,29.94,14,3,18,0.00
2013-10-24,63,44,30,30,22,14,76,45,16,30.11,29.98,17,3,18,0.00
2013-10-25,58,43,32,39,31,23,90,64,29,30.14,29.96,14,4,17,0.06
2013-10-26,58,45,33,36,28,21,88,58,25,30.24,30.11,17,2,26,0.00
2013-10-27,57,46,34,30,24,15,65,45,20,30.11,29.75,23,7,29,0.00
2013-10-28,57,46,36,33,25,15,72,47,19,29.78,29.62,23,8,28,0.00
2013-10-29,54,42,32,32,23,14,92,48,21,29.80,29.66,27,9,28,0.01
2013-10-30,43,34,29,30,21,16,93,60,37,29.86,29.69,17,7,20,0.01
2013-10-31,39,33,29,20,18,14,62,52,42,30.02,29.85,31,13,38,0.00
2013-11-1,50,38,29,22,17,9,62,45,19,30.22,29.99,19,5,23,0.00
2013-11-2,61,43,29,20,12,-11,61,33,5,30.22,29.83,24,10,27,0.00
2013-11-3,56,43,34,28,19,12,79,39,25,29.84,29.46,27,11,32,0.00
2013-11-4,42,33,26,25,21,14,87,61,40,29.88,29.62,26,6,30,0.00
2013-11-5,35,27,17,24,14,2,93,62,37,30.30,29.83,23,7,29,0.00
2013-11-6,41,30,15,16,10,0,54,42,28,30.51,30.30,28,10,35,0.00
2013-11-7,55,41,30,18,15,8,52,36,15,30.48,30.05,23,10,27,0.00
2013-11-8,56,44,36,18,15,12,47,32,19,30.05,29.81,30,15,32,0.00
2013-11-14,54,45,37,19,15,10,48,30,21,29.82,29.71,13,6,17,0.00
2013-11-15,48,37,30,31,22,16,92,59,28,29.71,29.46,23,9,36,0.00
2013-11-16,41,34,29,30,24,18,93,70,41,29.55,29.38,30,10,40,0.00
2013-11-17,42,36,28,27,21,16,92,56,41,30.12,29.54,43,13,43,0.01
2013-11-18,49,38,29,23,19,14,59,46,29,30.21,30.06,18,8,23,0.00
2013-11-19,50,40,34,27,21,16,62,46,29,30.06,29.70,25,10,33,0.00
2013-11-20,49,40,33,31,24,16,93,57,28,29.78,29.66,21,8,27,0.00
2013-11-21,33,26,13,31,24,11,95,93,90,30.47,29.77,13,3,15,0.06
2013-11-22,23,18,12,22,16,9,95,91,89,30.75,30.47,7,1,10,0.01
2013-11-23,24,21,19,21,19,17,94,91,87,30.73,30.47,5,1,7,0.00
2013-11-24,29,24,17,25,21,15,95,90,84,30.47,30.08,19,5,22,0.00
2013-11-25,33,26,18,26,21,16,92,80,62,30.41,30.08,8,2,9,0.11
2013-11-26,37,25,16,22,18,13,94,75,53,30.56,30.41,8,2,10,0.23
2013-11-27,38,28,21,22,18,14,80,67,48,30.48,30.24,20,6,25,0.01
2013-11-28,42,30,19,21,16,12,81,58,37,30.35,30.24,14,3,20,0.01
2013-11-29,44,32,26,19,16,14,62,51,31,30.31,30.20,19,7,23,0.00
2013-11-30,44,31,22,22,16,13,70,54,31,30.35,30.22,16,4,19,0.00
2013-12-1,42,34,25,23,16,10,65,49,36,30.29,30.02,26,10,30,0.00
2013-12-2,47,40,34,23,20,16,59,45,34,30.03,29.58,31,12,39,0.00
2013-12-3,39,32,27,23,18,16,84,57,40,29.58,29.47,26,12,30,0.00
2013-12-5,14,4,-4,3,-3,-7,86,75,52,30.35,30.18,10,3,15,0.00
2013-12-6,17,6,-7,2,-5,-11,84,64,34,30.50,30.35,20,6,27,0.00
2013-12-7,19,15,11,13,7,-1,82,68,55,30.44,29.82,20,9,21,0.00
2013-12-8,18,14,7,14,1,-7,87,56,40,30.14,29.74,28,11,35,0.00
2013-12-9,14,8,4,-6,-8,-11,57,46,37,30.64,30.12,28,9,39,0.00
2013-12-10,32,22,7,10,3,-9,52,43,36,30.64,30.32,30,13,36,0.00
2013-12-11,37,26,14,9,5,2,62,42,28,30.54,30.35,22,8,29,0.00
2013-12-12,42,30,23,9,4,1,42,34,21,30.53,30.08,25,8,28,0.00
2013-12-13,43,29,21,14,9,2,61,43,27,30.15,29.89,19,3,25,0.00
2013-12-14,34,24,13,12,8,4,70,53,37,30.51,30.15,18,4,18,0.00
2013-12-15,44,31,21,18,14,9,63,49,32,30.48,30.33,15,3,19,0.00
2013-12-16,50,38,29,20,14,8,50,38,22,30.33,30.20,12,4,19,0.00
2013-12-17,50,38,30,18,14,9,50,38,24,30.40,30.19,18,6,24,0.00
2013-12-18,51,41,33,16,12,8,43,30,18,30.19,29.68,21,10,25,0.00
2013-12-19,40,34,29,25,16,11,73,48,35,29.68,29.51,22,10,24,0.00
2013-12-20,32,29,27,24,19,14,77,66,58,29.69,29.60,19,9,22,0.00
2013-12-21,32,25,15,18,12,5,74,59,43,29.91,29.54,13,4,17,0.00
2013-12-22,28,20,11,10,6,2,70,55,37,30.34,29.90,25,9,30,0.00
2013-12-23,34,27,22,16,11,7,59,51,44,30.44,30.32,24,12,34,0.00
2013-12-24,40,29,14,28,17,4,87,60,48,30.37,30.09,23,9,31,0.00
2013-12-25,35,23,12,8,4,0,65,44,29,30.59,30.35,14,3,14,0.00
2013-12-26,45,30,20,13,7,1,59,39,22,30.55,30.38,11,2,12,0.00
2013-12-27,47,31,20,18,14,10,65,50,30,30.45,30.21,14,3,18,0.00
2013-12-28,42,33,24,29,19,13,93,56,39,30.21,29.86,15,6,21,0.00
2013-12-29,30,24,18,22,16,6,93,73,41,30.19,29.98,22,4,27,0.03
2013-12-30,40,30,24,14,10,3,52,42,32,30.34,30.15,27,8,36,0.00
2013-12-31,43,35,28,22,17,11,60,47,38,30.25,29.98,28,12,34,0.00
2014-1-1,36,31,23,26,14,4,87,52,35,30.28,29.88,29,10,36,0.00
2014-1-2,43,33,22,11,6,2,47,33,21,30.37,30.12,22,6,29,0.00